createdAt,value
2019-03-01T00:02:12.974Z,9.35
2019-03-01T00:07:49.769Z,9.43
2019-03-01T00:13:09.451Z,9.66
2019-03-01T00:18:29.031Z,9.53
2019-03-01T00:23:45.633Z,9.54
2019-03-01T00:29:15.502Z,9.49
2019-03-01T00:34:54.256Z,9.30
2019-03-01T00:40:23.013Z,9.39
2019-03-01T00:45:27.551Z,9.38
2019-03-01T00:50:31.923Z,9.08
2019-03-01T00:55:36.295Z,8.91
2019-03-01T01:00:43.898Z,8.93
2019-03-01T01:05:48.262Z,8.94
2019-03-01T01:10:52.608Z,9.05
2019-03-01T01:15:56.950Z,8.89
2019-03-01T01:21:01.320Z,8.99
2019-03-01T01:26:05.868Z,9.05
2019-03-01T01:31:10.276Z,8.95
2019-03-01T01:36:14.670Z,8.96
2019-03-01T01:41:19.014Z,8.91
2019-03-01T01:46:23.402Z,8.96
2019-03-01T01:51:27.746Z,8.86
2019-03-01T01:56:32.249Z,8.91
2019-03-01T02:01:36.601Z,8.83
2019-03-01T02:06:41.022Z,9.05
2019-03-01T02:11:45.400Z,8.75
2019-03-01T02:16:49.757Z,8.76
2019-03-01T02:21:54.113Z,8.87
2019-03-01T02:27:20.288Z,8.80
2019-03-01T02:32:30.473Z,8.83
2019-03-01T02:37:34.843Z,8.86
2019-03-01T02:42:39.227Z,8.85
2019-03-01T02:47:43.698Z,8.54
2019-03-01T02:52:48.232Z,8.48
2019-03-01T02:57:52.763Z,8.69
2019-03-01T03:02:57.136Z,8.33
2019-03-01T03:08:03.243Z,8.42
2019-03-01T03:13:08.138Z,8.66
2019-03-01T03:18:13.806Z,8.85
2019-03-01T03:23:18.162Z,8.84
2019-03-01T03:28:22.569Z,8.84
2019-03-01T03:33:26.941Z,8.79
2019-03-01T03:38:31.295Z,9.06
2019-03-01T03:43:35.778Z,8.90
2019-03-01T03:48:40.212Z,8.93
2019-03-01T03:53:44.607Z,8.75
2019-03-01T03:58:49.019Z,8.90
2019-03-01T04:03:53.413Z,8.82
2019-03-01T04:08:57.771Z,8.61
2019-03-01T04:14:02.223Z,8.47
2019-03-01T04:19:06.574Z,8.56
2019-03-01T04:24:11.909Z,8.76
2019-03-01T04:29:16.295Z,8.57
2019-03-01T04:34:20.676Z,8.57
2019-03-01T04:39:25.059Z,8.69
2019-03-01T04:44:29.427Z,8.69
2019-03-01T04:49:33.824Z,8.17
2019-03-01T04:54:38.223Z,8.16
2019-03-01T04:59:42.619Z,8.20
2019-03-01T05:04:47.808Z,7.97
2019-03-01T05:09:52.172Z,8.14
2019-03-01T05:14:56.553Z,8.13
2019-03-01T05:20:00.948Z,8.10
2019-03-01T05:25:07.850Z,8.28
2019-03-01T05:30:18.011Z,8.42
2019-03-01T05:35:22.365Z,8.16
2019-03-01T05:40:26.800Z,8.33
2019-03-01T05:45:31.339Z,8.28
2019-03-01T05:50:35.699Z,8.13
2019-03-01T05:55:40.084Z,8.18
2019-03-01T06:00:44.439Z,7.87
2019-03-01T06:05:48.791Z,8.02
2019-03-01T06:10:56.465Z,8.17
2019-03-01T06:16:28.346Z,8.23
2019-03-01T06:21:50.802Z,8.09
2019-03-01T06:27:07.154Z,8.29
2019-03-01T06:32:42.209Z,8.27
2019-03-01T06:38:16.032Z,8.25
2019-03-01T06:43:42.441Z,8.22
2019-03-01T06:48:48.480Z,8.49
2019-03-01T06:53:52.896Z,8.40
2019-03-01T06:58:57.297Z,8.40
2019-03-01T07:04:03.302Z,8.34
2019-03-01T07:09:08.030Z,8.34
2019-03-01T07:14:12.455Z,8.49
2019-03-01T07:19:16.817Z,8.57
2019-03-01T07:24:21.213Z,8.61
2019-03-01T07:29:25.586Z,8.73
2019-03-01T07:34:30.017Z,9.02
2019-03-01T07:39:34.417Z,9.02
2019-03-01T07:44:38.913Z,9.27
2019-03-01T07:49:43.260Z,9.00
2019-03-01T07:54:49.500Z,9.18
2019-03-01T07:59:53.695Z,9.20
2019-03-01T08:05:00.019Z,9.28
2019-03-01T08:10:06.744Z,9.15
2019-03-01T08:15:17.454Z,9.37
2019-03-01T08:20:21.801Z,9.47
2019-03-01T08:25:28.452Z,9.55
2019-03-01T08:30:32.226Z,9.68
2019-03-01T08:35:36.571Z,9.60
2019-03-01T08:40:41.081Z,9.81
2019-03-01T08:45:45.490Z,9.79
2019-03-01T08:50:51.086Z,9.70
2019-03-01T08:55:55.454Z,9.69
2019-03-01T09:01:04.060Z,9.75
2019-03-01T09:06:09.439Z,9.89
2019-03-01T09:11:13.756Z,9.86
2019-03-01T09:16:18.232Z,9.86
2019-03-01T09:21:23.862Z,9.82
2019-03-01T09:26:28.236Z,9.73
2019-03-01T09:31:32.650Z,9.77
2019-03-01T09:36:38.735Z,9.97
2019-03-01T09:41:43.168Z,10.18
2019-03-01T09:46:47.549Z,10.21
2019-03-01T09:51:51.893Z,10.37
2019-03-01T09:56:56.245Z,10.50
2019-03-01T10:02:00.739Z,10.52
2019-03-01T10:07:05.219Z,10.58
2019-03-01T10:12:09.600Z,10.57
2019-03-01T10:17:14.067Z,10.52
2019-03-01T10:22:18.455Z,10.64
2019-03-01T10:27:22.805Z,10.37
2019-03-01T10:32:27.148Z,10.48
2019-03-01T10:37:31.527Z,10.42
2019-03-01T10:42:35.929Z,10.40
2019-03-01T10:47:40.326Z,10.34
2019-03-01T10:52:44.805Z,10.36
2019-03-01T10:57:49.362Z,10.39
2019-03-01T11:02:53.909Z,10.45
2019-03-01T11:07:58.335Z,10.53
2019-03-01T11:13:02.973Z,10.66
2019-03-01T11:18:07.572Z,10.65
2019-03-01T11:23:11.992Z,10.95
2019-03-01T11:28:16.409Z,10.74
2019-03-01T11:33:20.847Z,10.90
2019-03-01T11:38:25.350Z,11.01
2019-03-01T11:43:29.691Z,10.87
2019-03-01T11:48:34.211Z,10.93
2019-03-01T11:53:38.583Z,10.95
2019-03-01T11:58:43.014Z,11.15
2019-03-01T12:03:47.372Z,11.11
2019-03-01T12:08:51.728Z,11.24
2019-03-01T12:13:56.120Z,11.00
2019-03-01T12:19:00.474Z,11.09
2019-03-01T12:24:04.849Z,11.16
2019-03-01T12:29:09.271Z,11.14
2019-03-01T12:34:13.637Z,10.97
2019-03-01T12:39:18.042Z,10.94
2019-03-01T12:44:22.430Z,10.61
2019-03-01T12:49:26.792Z,10.63
2019-03-01T12:54:31.266Z,10.47
2019-03-01T12:59:35.635Z,10.37
2019-03-01T13:04:40.039Z,10.35
2019-03-01T13:09:44.431Z,10.27
2019-03-01T13:14:49.943Z,10.20
2019-03-01T13:19:57.522Z,10.18
2019-03-01T13:25:00.502Z,10.22
2019-03-01T13:30:08.097Z,10.23
2019-03-01T13:35:22.410Z,10.13
2019-03-01T13:40:26.548Z,10.16
2019-03-01T13:45:30.894Z,9.77
2019-03-01T13:50:38.286Z,10.07
2019-03-01T13:55:41.326Z,9.94
2019-03-01T14:00:48.774Z,10.00
2019-03-01T14:05:54.654Z,9.66
2019-03-01T14:10:57.960Z,9.88
2019-03-01T14:16:02.336Z,9.78
2019-03-01T14:21:06.718Z,9.91
2019-03-01T14:26:11.115Z,10.24
2019-03-01T14:31:15.541Z,10.29
2019-03-01T14:36:19.921Z,9.92
2019-03-01T14:41:24.321Z,9.94
2019-03-01T14:46:28.704Z,9.96
2019-03-01T14:51:33.083Z,9.89
2019-03-01T14:56:39.631Z,9.88
2019-03-01T15:01:47.156Z,9.71
2019-03-01T15:06:55.068Z,9.51
2019-03-01T15:11:57.705Z,9.52
2019-03-01T15:17:02.086Z,9.26
2019-03-01T15:22:06.478Z,9.23
2019-03-01T15:27:10.836Z,9.54
2019-03-01T15:32:15.471Z,9.14
2019-03-01T15:37:19.899Z,9.21
2019-03-01T15:42:24.279Z,9.21
2019-03-01T15:47:28.693Z,9.06
2019-03-01T15:52:33.048Z,9.03
2019-03-01T15:57:37.466Z,8.95
2019-03-01T16:02:41.823Z,8.93
2019-03-01T16:07:46.200Z,8.59
2019-03-01T16:12:50.649Z,8.68
2019-03-01T16:17:57.576Z,8.57
2019-03-01T16:23:01.131Z,8.66
2019-03-01T16:28:05.499Z,8.86
2019-03-01T16:33:09.887Z,8.56
2019-03-01T16:38:14.309Z,8.37
2019-03-01T16:43:18.697Z,8.36
2019-03-01T16:48:23.376Z,8.20
2019-03-01T16:53:27.773Z,7.90
2019-03-01T16:58:32.126Z,7.80
2019-03-01T17:03:36.505Z,7.72
2019-03-01T17:08:40.920Z,7.44
2019-03-01T17:13:45.331Z,7.51
2019-03-01T17:18:50.066Z,7.45
2019-03-01T17:23:54.739Z,7.57
2019-03-01T17:28:59.695Z,7.38
2019-03-01T17:34:05.150Z,7.45
2019-03-01T17:39:09.779Z,7.37
2019-03-01T17:44:15.525Z,6.89
2019-03-01T17:49:19.878Z,6.70
2019-03-01T17:54:24.242Z,6.55
2019-03-01T17:59:28.619Z,6.62
2019-03-01T18:04:33.566Z,6.39
2019-03-01T18:09:39.215Z,6.35
2019-03-01T18:14:43.639Z,6.18
2019-03-01T18:19:48.018Z,6.73
2019-03-01T18:24:53.448Z,5.98
2019-03-01T18:29:57.977Z,5.85
2019-03-01T18:35:02.434Z,6.18
2019-03-01T18:40:13.463Z,6.04
2019-03-01T18:45:21.860Z,6.14
2019-03-01T18:50:34.610Z,5.98
2019-03-01T18:55:39.122Z,6.39
2019-03-01T19:00:48.614Z,6.25
2019-03-01T19:05:53.053Z,6.45
2019-03-01T19:10:59.811Z,6.32
2019-03-01T19:16:04.842Z,6.39
2019-03-01T19:21:09.295Z,6.13
2019-03-01T19:26:13.667Z,6.31
2019-03-01T19:31:18.153Z,6.01
2019-03-01T19:36:22.518Z,6.04
2019-03-01T19:41:26.882Z,6.30
2019-03-01T19:46:31.289Z,6.43
2019-03-01T19:51:37.410Z,6.48
2019-03-01T19:56:41.780Z,6.70
2019-03-01T20:01:46.136Z,6.15
2019-03-01T20:06:50.504Z,6.09
2019-03-01T20:11:54.871Z,6.04
2019-03-01T20:16:59.249Z,5.73
2019-03-01T20:22:03.633Z,6.13
2019-03-01T20:27:08.145Z,6.11
2019-03-01T20:32:15.490Z,5.73
2019-03-01T20:37:19.596Z,5.64
2019-03-01T20:42:25.075Z,5.89
2019-03-01T20:47:29.428Z,5.68
2019-03-01T20:52:34.834Z,5.88
2019-03-01T20:57:40.459Z,6.11
2019-03-01T21:02:46.902Z,5.52
2019-03-01T21:07:53.853Z,5.73
2019-03-01T21:12:57.138Z,5.64
2019-03-01T21:18:01.509Z,6.05
2019-03-01T21:23:06.038Z,6.22
2019-03-01T21:28:10.391Z,6.23
2019-03-01T21:33:14.774Z,5.99
2019-03-01T21:38:19.117Z,6.15
2019-03-01T21:43:23.675Z,5.87
2019-03-01T21:48:28.031Z,6.01
2019-03-01T21:53:32.414Z,6.17
2019-03-01T21:58:38.523Z,5.96
2019-03-01T22:03:42.888Z,6.20
2019-03-01T22:08:48.731Z,5.78
2019-03-01T22:13:53.512Z,6.01
2019-03-01T22:18:58.638Z,6.21
2019-03-01T22:24:03.975Z,5.88
2019-03-01T22:29:08.813Z,6.16
2019-03-01T22:34:14.482Z,6.16
2019-03-01T22:39:18.869Z,5.62
2019-03-01T22:44:23.237Z,5.28
2019-03-01T22:49:28.591Z,5.70
2019-03-01T22:54:33.699Z,5.70
2019-03-01T22:59:38.061Z,5.76
2019-03-01T23:04:42.396Z,5.47
2019-03-01T23:09:47.586Z,6.03
2019-03-01T23:14:53.649Z,5.77
2019-03-01T23:19:58.006Z,5.95
2019-03-01T23:25:02.389Z,5.78
2019-03-01T23:30:08.747Z,5.43
2019-03-01T23:35:14.650Z,5.46
2019-03-01T23:40:21.243Z,5.45
2019-03-01T23:45:25.600Z,5.39
2019-03-01T23:50:31.485Z,5.44
2019-03-01T23:55:36.021Z,5.34
